createdAt,value
2023-02-24T00:01:51.465Z,10.90
2023-02-24T00:04:21.628Z,10.96
2023-02-24T00:06:49.596Z,10.87
2023-02-24T00:09:19.527Z,10.41
2023-02-24T00:11:49.955Z,10.54
2023-02-24T00:14:18.831Z,10.64
2023-02-24T00:16:47.221Z,10.70
2023-02-24T00:19:17.188Z,10.84
2023-02-24T00:21:47.077Z,10.84
2023-02-24T00:24:15.718Z,10.92
2023-02-24T00:26:43.301Z,10.98
2023-02-24T00:29:13.327Z,11.05
2023-02-24T00:31:43.094Z,10.91
2023-02-24T00:34:12.509Z,10.97
2023-02-24T00:36:40.555Z,11.01
2023-02-24T00:39:10.995Z,11.14
2023-02-24T00:41:40.876Z,11.03
2023-02-24T00:44:11.032Z,10.96
2023-02-24T00:46:40.184Z,10.89
2023-02-24T00:49:12.614Z,10.69
2023-02-24T00:51:42.276Z,10.54
2023-02-24T00:54:14.775Z,10.50
2023-02-24T00:56:43.362Z,10.31
2023-02-24T00:59:12.991Z,10.51
2023-02-24T01:01:41.251Z,10.57
2023-02-24T01:04:11.844Z,10.71
2023-02-24T01:06:41.381Z,10.58
2023-02-24T01:09:11.992Z,10.69
2023-02-24T01:11:58.741Z,10.75
2023-02-24T01:14:29.111Z,10.75
2023-02-24T01:16:57.342Z,10.78
2023-02-24T01:19:30.366Z,10.26
2023-02-24T01:21:58.061Z,10.21
2023-02-24T01:24:25.856Z,10.40
2023-02-24T01:26:54.746Z,10.50
2023-02-24T01:29:23.109Z,10.67
2023-02-24T01:31:51.815Z,10.69
2023-02-24T01:34:19.873Z,10.57
2023-02-24T01:36:47.749Z,10.73
2023-02-24T01:39:15.294Z,10.81
2023-02-24T01:41:45.742Z,10.71
2023-02-24T01:44:46.556Z,10.79
2023-02-24T01:47:17.111Z,10.56
2023-02-24T01:49:48.022Z,10.65
2023-02-24T01:52:18.638Z,10.67
2023-02-24T01:54:51.955Z,10.75
2023-02-24T01:57:21.879Z,10.67
2023-02-24T01:59:52.672Z,10.54
2023-02-24T02:02:24.424Z,10.56
2023-02-24T02:04:57.108Z,10.49
2023-02-24T02:07:27.574Z,10.68
2023-02-24T02:09:55.788Z,10.70
2023-02-24T02:12:24.761Z,10.78
2023-02-24T02:14:55.429Z,10.82
2023-02-24T02:17:30.317Z,9.58
2023-02-24T02:20:19.981Z,10.20
2023-02-24T02:23:03.224Z,10.75
2023-02-24T02:25:41.502Z,10.91
2023-02-24T02:28:42.371Z,10.60
2023-02-24T02:31:29.718Z,10.38
2023-02-24T02:34:29.241Z,9.87
2023-02-24T02:37:01.769Z,9.97
2023-02-24T02:39:40.742Z,10.05
2023-02-24T02:42:18.560Z,10.21
2023-02-24T02:44:55.901Z,10.18
2023-02-24T02:47:29.314Z,9.81
2023-02-24T02:50:02.333Z,9.99
2023-02-24T02:52:34.630Z,9.84
2023-02-24T02:55:07.165Z,9.56
2023-02-24T02:57:37.675Z,9.71
2023-02-24T03:00:13.214Z,9.86
2023-02-24T03:02:44.980Z,10.15
2023-02-24T03:05:17.427Z,10.42
2023-02-24T03:07:51.433Z,10.35
2023-02-24T03:10:22.993Z,10.47
2023-02-24T03:12:54.391Z,10.69
2023-02-24T03:15:24.402Z,10.49
2023-02-24T03:17:56.655Z,10.38
2023-02-24T03:20:32.671Z,10.48
2023-02-24T03:23:06.080Z,9.30
2023-02-24T03:25:44.417Z,8.26
2023-02-24T03:28:17.339Z,7.84
2023-02-24T03:30:50.385Z,7.82
2023-02-24T03:33:24.156Z,8.17
2023-02-24T03:35:53.060Z,9.05
2023-02-24T03:38:24.440Z,9.46
2023-02-24T03:40:53.293Z,9.28
2023-02-24T03:43:26.326Z,9.73
2023-02-24T03:45:54.250Z,9.40
2023-02-24T03:48:24.558Z,9.65
2023-02-24T03:50:53.921Z,9.92
2023-02-24T03:53:32.033Z,9.96
2023-02-24T03:56:10.835Z,9.82
2023-02-24T03:58:48.846Z,9.57
2023-02-24T04:01:25.362Z,9.64
2023-02-24T04:04:02.467Z,8.68
2023-02-24T04:06:38.324Z,8.33
2023-02-24T04:09:13.420Z,8.18
2023-02-24T04:11:46.028Z,8.13
2023-02-24T04:14:19.367Z,7.90
2023-02-24T04:17:00.898Z,7.90
2023-02-24T04:19:30.882Z,8.00
2023-02-24T04:22:01.430Z,8.02
2023-02-24T04:24:33.255Z,8.44
2023-02-24T04:27:04.519Z,8.82
2023-02-24T04:29:36.693Z,9.01
2023-02-24T04:32:08.343Z,8.78
2023-02-24T04:34:36.002Z,8.38
2023-02-24T04:37:04.953Z,8.01
2023-02-24T04:39:33.526Z,7.62
2023-02-24T04:42:01.587Z,7.58
2023-02-24T04:44:29.224Z,7.52
2023-02-24T04:46:57.074Z,7.73
2023-02-24T04:49:24.541Z,8.04
2023-02-24T04:51:52.037Z,7.70
2023-02-24T04:54:24.218Z,7.60
2023-02-24T04:56:52.735Z,7.62
2023-02-24T04:59:21.712Z,7.59
2023-02-24T05:01:51.597Z,7.74
2023-02-24T05:04:19.291Z,7.63
2023-02-24T05:06:47.363Z,7.96
2023-02-24T05:09:18.120Z,8.02
2023-02-24T05:11:49.189Z,8.34
2023-02-24T05:14:20.733Z,8.63
2023-02-24T05:16:49.887Z,9.06
2023-02-24T05:19:37.229Z,9.00
2023-02-24T05:22:07.044Z,9.31
2023-02-24T05:24:34.933Z,9.66
2023-02-24T05:27:04.085Z,9.62
2023-02-24T05:29:34.244Z,9.66
2023-02-24T05:32:02.966Z,9.76
2023-02-24T05:34:32.572Z,10.06
2023-02-24T05:37:04.459Z,9.83
2023-02-24T05:39:32.388Z,9.41
2023-02-24T05:42:05.987Z,9.10
2023-02-24T05:44:35.516Z,8.48
2023-02-24T05:47:05.228Z,8.89
2023-02-24T05:49:34.855Z,9.16
2023-02-24T05:52:07.355Z,9.57
2023-02-24T05:54:37.949Z,9.70
2023-02-24T05:57:08.851Z,9.64
2023-02-24T05:59:37.860Z,9.99
2023-02-24T06:02:09.090Z,10.25
2023-02-24T06:04:40.976Z,10.42
2023-02-24T06:07:14.396Z,9.43
2023-02-24T06:09:44.851Z,8.24
2023-02-24T06:12:15.280Z,8.42
2023-02-24T06:14:44.954Z,8.49
2023-02-24T06:17:12.478Z,8.59
2023-02-24T06:19:41.178Z,8.70
2023-02-24T06:22:11.710Z,8.07
2023-02-24T06:24:42.661Z,7.81
2023-02-24T06:27:10.608Z,7.68
2023-02-24T06:29:38.895Z,7.80
2023-02-24T06:32:09.591Z,7.72
2023-02-24T06:34:38.969Z,7.39
2023-02-24T06:37:08.077Z,7.20
2023-02-24T06:39:36.879Z,7.05
2023-02-24T06:42:05.885Z,7.05
2023-02-24T06:44:34.040Z,7.28
2023-02-24T06:47:02.269Z,7.46
2023-02-24T06:49:31.483Z,7.42
2023-02-24T06:51:59.990Z,7.86
2023-02-24T06:54:30.385Z,8.11
2023-02-24T06:56:59.722Z,7.89
2023-02-24T06:59:28.614Z,7.81
2023-02-24T07:01:56.802Z,8.01
2023-02-24T07:04:28.289Z,8.10
2023-02-24T07:07:02.834Z,8.25
2023-02-24T07:09:31.909Z,8.27
2023-02-24T07:12:02.516Z,8.28
2023-02-24T07:14:30.939Z,8.57
2023-02-24T07:16:59.452Z,8.36
2023-02-24T07:19:30.002Z,8.36
2023-02-24T07:22:00.724Z,8.68
2023-02-24T07:24:35.743Z,8.34
2023-02-24T07:27:05.829Z,8.27
2023-02-24T07:29:35.585Z,8.69
2023-02-24T07:32:05.524Z,9.43
2023-02-24T07:34:34.826Z,9.77
2023-02-24T07:37:07.815Z,9.90
2023-02-24T07:39:36.717Z,9.75
2023-02-24T07:42:04.387Z,10.36
2023-02-24T07:44:32.993Z,10.90
2023-02-24T07:47:00.672Z,10.63
2023-02-24T07:49:30.234Z,8.78
2023-02-24T07:51:58.514Z,8.34
2023-02-24T07:54:29.957Z,9.05
2023-02-24T07:56:59.498Z,9.24
2023-02-24T07:59:29.149Z,9.58
2023-02-24T08:01:57.022Z,9.45
2023-02-24T08:04:27.648Z,9.98
2023-02-24T08:07:02.368Z,8.88
2023-02-24T08:10:08.249Z,9.15
2023-02-24T08:12:36.258Z,9.63
2023-02-24T08:15:16.917Z,9.81
2023-02-24T08:17:47.176Z,9.81
2023-02-24T08:20:24.948Z,10.70
2023-02-24T08:22:54.343Z,10.50
2023-02-24T08:25:25.374Z,10.44
2023-02-24T08:28:07.418Z,10.51
2023-02-24T08:30:39.598Z,10.09
2023-02-24T08:33:09.438Z,10.03
2023-02-24T08:35:39.384Z,10.02
2023-02-24T08:38:09.869Z,9.45
2023-02-24T08:40:50.135Z,9.67
2023-02-24T08:43:31.079Z,10.00
2023-02-24T08:46:00.861Z,9.86
2023-02-24T08:48:37.065Z,9.60
2023-02-24T08:51:09.323Z,9.57
2023-02-24T08:53:40.416Z,9.80
2023-02-24T08:56:12.233Z,9.56
2023-02-24T08:58:46.821Z,9.79
2023-02-24T09:01:24.115Z,10.01
2023-02-24T09:03:54.876Z,10.60
2023-02-24T09:06:26.199Z,10.20
2023-02-24T09:09:17.016Z,9.98
2023-02-24T09:11:47.053Z,9.67
2023-02-24T09:14:26.582Z,9.58
2023-02-24T09:17:06.270Z,9.31
2023-02-24T09:20:01.323Z,9.90
2023-02-24T09:22:33.322Z,10.52
2023-02-24T09:25:18.825Z,10.50
2023-02-24T09:27:52.174Z,10.22
2023-02-24T09:30:36.595Z,10.09
2023-02-24T09:33:18.870Z,10.43
2023-02-24T09:35:52.419Z,11.55
2023-02-24T09:38:36.768Z,11.11
2023-02-24T09:41:18.531Z,11.31
2023-02-24T09:43:47.997Z,10.07
2023-02-24T09:46:15.776Z,10.79
2023-02-24T09:48:51.334Z,10.26
2023-02-24T09:51:29.112Z,10.00
2023-02-24T09:54:01.877Z,9.98
2023-02-24T09:56:37.174Z,9.83
2023-02-24T09:59:14.626Z,10.16
2023-02-24T10:01:48.301Z,10.05
2023-02-24T10:04:29.752Z,10.63
2023-02-24T10:07:03.973Z,11.55
2023-02-24T10:09:35.326Z,12.11
2023-02-24T10:12:07.286Z,12.47
2023-02-24T10:14:44.513Z,12.68
2023-02-24T10:17:30.721Z,12.13
2023-02-24T10:20:13.601Z,11.96
2023-02-24T10:22:51.321Z,12.73
2023-02-24T10:25:26.353Z,12.24
2023-02-24T10:28:04.428Z,11.75
2023-02-24T10:31:01.488Z,12.18
2023-02-24T10:33:38.696Z,12.29
2023-02-24T10:36:09.104Z,12.13
2023-02-24T10:38:37.809Z,11.96
2023-02-24T10:41:07.023Z,11.96
2023-02-24T10:43:45.325Z,11.69
2023-02-24T10:46:38.589Z,11.72
2023-02-24T10:49:16.358Z,11.67
2023-02-24T10:51:50.012Z,10.80
2023-02-24T10:54:34.092Z,10.75
2023-02-24T10:57:15.591Z,11.33
2023-02-24T10:59:58.519Z,11.27
2023-02-24T11:02:32.780Z,10.70
2023-02-24T11:05:24.947Z,11.08
2023-02-24T11:08:07.278Z,11.11
2023-02-24T11:10:52.868Z,10.68
2023-02-24T11:13:38.963Z,11.26
2023-02-24T11:16:26.977Z,11.25
2023-02-24T11:18:57.833Z,11.78
2023-02-24T11:21:27.722Z,10.99
2023-02-24T11:23:59.446Z,11.07
2023-02-24T11:26:35.161Z,11.51
2023-02-24T11:29:17.395Z,11.16
2023-02-24T11:31:59.850Z,11.45
2023-02-24T11:34:35.571Z,10.33
2023-02-24T11:37:15.682Z,10.29
2023-02-24T11:39:54.165Z,10.64
2023-02-24T11:42:27.613Z,11.57
2023-02-24T11:45:00.799Z,12.12
2023-02-24T11:47:33.507Z,12.53
2023-02-24T11:50:18.528Z,12.52
2023-02-24T11:52:49.378Z,12.59
2023-02-24T11:55:35.994Z,13.12
2023-02-24T11:58:13.795Z,12.85
2023-02-24T12:00:49.416Z,12.89
2023-02-24T12:03:23.973Z,12.73
2023-02-24T12:05:56.854Z,11.85
2023-02-24T12:08:30.449Z,11.89
2023-02-24T12:11:04.442Z,11.98
2023-02-24T12:13:39.652Z,11.52
2023-02-24T12:16:14.632Z,10.78
2023-02-24T12:18:46.761Z,11.06
2023-02-24T12:21:22.847Z,11.11
2023-02-24T12:23:53.545Z,11.08
2023-02-24T12:26:24.924Z,11.15
2023-02-24T12:29:16.089Z,11.07
2023-02-24T12:31:55.250Z,10.97
2023-02-24T12:34:36.004Z,10.57
2023-02-24T12:37:35.742Z,9.92
2023-02-24T12:40:16.815Z,9.85
2023-02-24T12:42:51.956Z,9.99
2023-02-24T12:45:26.118Z,9.64
2023-02-24T12:48:05.319Z,9.84
2023-02-24T12:50:46.258Z,9.52
2023-02-24T12:53:21.819Z,10.17
2023-02-24T12:55:56.382Z,10.10
2023-02-24T12:58:27.545Z,10.01
2023-02-24T13:01:03.734Z,10.49
2023-02-24T13:04:15.263Z,10.50
2023-02-24T13:06:53.310Z,10.62
2023-02-24T13:09:29.242Z,10.57
2023-02-24T13:12:04.865Z,10.98
2023-02-24T13:14:35.801Z,11.04
2023-02-24T13:17:17.426Z,10.39
2023-02-24T13:19:45.669Z,10.62
2023-02-24T13:22:26.847Z,10.65
2023-02-24T13:25:02.754Z,10.72
2023-02-24T13:27:32.953Z,10.89
2023-02-24T13:30:03.774Z,11.01
2023-02-24T13:32:34.140Z,10.43
2023-02-24T13:35:04.914Z,10.82
2023-02-24T13:37:35.708Z,11.19
2023-02-24T13:40:26.429Z,11.46
2023-02-24T13:43:00.177Z,11.26
2023-02-24T13:45:29.056Z,11.26
2023-02-24T13:48:20.121Z,11.93
2023-02-24T13:51:06.054Z,12.21
2023-02-24T13:53:48.445Z,12.19
2023-02-24T13:56:30.512Z,12.58
2023-02-24T13:59:15.415Z,13.27
2023-02-24T14:01:50.395Z,13.57
2023-02-24T14:04:21.772Z,13.65
2023-02-24T14:06:53.638Z,13.28
2023-02-24T14:09:25.651Z,12.91
2023-02-24T14:12:00.140Z,13.35
2023-02-24T14:14:28.167Z,12.95
2023-02-24T14:16:55.667Z,12.71
2023-02-24T14:19:26.396Z,12.46
2023-02-24T14:21:56.199Z,12.80
2023-02-24T14:24:24.965Z,12.75
2023-02-24T14:26:56.247Z,12.78
2023-02-24T14:29:26.540Z,12.32
2023-02-24T14:31:56.061Z,11.68
2023-02-24T14:34:26.130Z,11.70
2023-02-24T14:36:57.194Z,11.90
2023-02-24T14:39:26.848Z,12.50
2023-02-24T14:42:13.449Z,13.28
2023-02-24T14:44:46.252Z,12.65
2023-02-24T14:47:15.341Z,12.20
2023-02-24T14:49:52.648Z,12.03
2023-02-24T14:52:27.975Z,11.80
2023-02-24T14:55:00.141Z,12.15
2023-02-24T14:57:32.709Z,12.58
2023-02-24T15:00:10.613Z,12.61
2023-02-24T15:02:42.877Z,12.56
2023-02-24T15:05:12.366Z,12.35
2023-02-24T15:07:41.587Z,11.87
2023-02-24T15:10:21.071Z,11.35
2023-02-24T15:12:52.809Z,11.00
2023-02-24T15:15:23.202Z,11.04
2023-02-24T15:17:55.563Z,11.12
2023-02-24T15:20:28.644Z,11.05
2023-02-24T15:22:56.877Z,10.79
2023-02-24T15:25:40.696Z,10.58
2023-02-24T15:28:25.449Z,10.43
2023-02-24T15:31:00.928Z,10.22
2023-02-24T15:33:34.620Z,10.20
2023-02-24T15:36:06.471Z,10.39
2023-02-24T15:38:36.550Z,10.51
2023-02-24T15:41:06.120Z,10.93
2023-02-24T15:43:37.984Z,10.68
2023-02-24T15:46:16.208Z,10.98
2023-02-24T15:48:45.463Z,11.08
2023-02-24T15:51:22.029Z,11.22
2023-02-24T15:53:49.707Z,10.75
2023-02-24T15:56:17.797Z,11.23
2023-02-24T15:58:46.610Z,11.18
2023-02-24T16:01:14.895Z,10.89
2023-02-24T16:03:43.072Z,10.41
2023-02-24T16:06:18.913Z,10.67
2023-02-24T16:08:47.679Z,10.54
2023-02-24T16:11:18.152Z,10.44
2023-02-24T16:13:53.597Z,10.93
2023-02-24T16:16:23.072Z,10.74
2023-02-24T16:18:50.887Z,10.89
2023-02-24T16:21:18.539Z,10.74
2023-02-24T16:23:46.094Z,10.61
2023-02-24T16:26:17.531Z,10.35
2023-02-24T16:28:49.325Z,10.05
2023-02-24T16:31:17.258Z,10.06
2023-02-24T16:33:54.567Z,9.68
2023-02-24T16:36:24.087Z,9.94
2023-02-24T16:38:51.880Z,9.72
2023-02-24T16:41:19.739Z,10.21
2023-02-24T16:43:48.641Z,9.86
2023-02-24T16:46:18.984Z,9.89
2023-02-24T16:48:48.596Z,9.93
2023-02-24T16:51:18.488Z,10.14
2023-02-24T16:53:46.046Z,9.86
2023-02-24T16:56:15.089Z,9.60
2023-02-24T16:58:42.845Z,9.71
2023-02-24T17:01:19.190Z,9.63
2023-02-24T17:03:48.405Z,9.03
2023-02-24T17:06:16.184Z,9.09
2023-02-24T17:08:45.922Z,8.98
2023-02-24T17:11:14.738Z,9.04
2023-02-24T17:13:42.488Z,8.51
2023-02-24T17:16:10.238Z,8.62
2023-02-24T17:18:39.060Z,8.61
2023-02-24T17:21:06.686Z,8.67
2023-02-24T17:23:34.184Z,8.58
2023-02-24T17:26:03.428Z,8.51
2023-02-24T17:28:32.251Z,8.62
2023-02-24T17:30:59.748Z,8.75
2023-02-24T17:33:27.332Z,8.99
2023-02-24T17:35:56.161Z,8.46
2023-02-24T17:38:24.929Z,8.55
2023-02-24T17:40:52.874Z,8.99
2023-02-24T17:43:20.426Z,8.42
2023-02-24T17:45:48.936Z,8.30
2023-02-24T17:48:16.844Z,8.61
2023-02-24T17:50:45.630Z,8.86
2023-02-24T17:53:14.491Z,9.24
2023-02-24T17:55:59.948Z,9.36
2023-02-24T17:58:29.379Z,9.20
2023-02-24T18:00:56.926Z,8.77
2023-02-24T18:03:24.725Z,8.79
2023-02-24T18:05:58.801Z,8.78
2023-02-24T18:08:27.889Z,8.84
2023-02-24T18:10:55.328Z,8.68
2023-02-24T18:13:22.815Z,8.57
2023-02-24T18:15:50.277Z,8.57
2023-02-24T18:18:17.839Z,7.89
2023-02-24T18:20:45.764Z,8.24
2023-02-24T18:23:13.612Z,8.15
2023-02-24T18:25:42.547Z,8.22
2023-02-24T18:28:10.023Z,8.44
2023-02-24T18:30:39.789Z,8.57
2023-02-24T18:33:07.604Z,8.56
2023-02-24T18:35:37.079Z,8.57
2023-02-24T18:38:05.880Z,8.72
2023-02-24T18:40:33.362Z,9.26
2023-02-24T18:43:02.182Z,8.82
2023-02-24T18:45:29.631Z,8.74
2023-02-24T18:47:57.093Z,9.00
2023-02-24T18:50:25.064Z,8.74
2023-02-24T18:52:52.836Z,8.60
2023-02-24T18:55:22.052Z,9.01
2023-02-24T18:57:49.515Z,8.36
2023-02-24T19:00:19.385Z,8.48
2023-02-24T19:02:47.284Z,8.46
2023-02-24T19:05:14.821Z,8.52
2023-02-24T19:07:42.834Z,8.48
2023-02-24T19:10:11.590Z,8.06
2023-02-24T19:12:39.112Z,8.67
2023-02-24T19:15:07.766Z,8.46
2023-02-24T19:17:36.684Z,8.56
2023-02-24T19:20:04.508Z,7.99
2023-02-24T19:22:31.985Z,7.77
2023-02-24T19:24:59.548Z,7.38
2023-02-24T19:27:28.463Z,7.15
2023-02-24T19:29:56.002Z,6.92
2023-02-24T19:32:23.626Z,6.79
2023-02-24T19:34:52.616Z,6.79
2023-02-24T19:37:20.090Z,6.85
2023-02-24T19:39:47.594Z,6.97
2023-02-24T19:42:15.048Z,7.01
2023-02-24T19:44:42.579Z,6.92
2023-02-24T19:47:10.064Z,6.86
2023-02-24T19:49:37.687Z,6.74
2023-02-24T19:52:06.499Z,6.72
2023-02-24T19:54:34.068Z,6.79
2023-02-24T19:57:01.995Z,6.78
2023-02-24T19:59:29.550Z,6.87
2023-02-24T20:01:57.047Z,6.81
2023-02-24T20:04:25.196Z,7.02
2023-02-24T20:06:52.719Z,6.76
2023-02-24T20:09:22.309Z,6.45
2023-02-24T20:11:51.275Z,6.46
2023-02-24T20:14:20.135Z,6.46
2023-02-24T20:16:48.302Z,6.43
2023-02-24T20:19:17.490Z,6.48
2023-02-24T20:21:45.121Z,6.48
2023-02-24T20:24:14.642Z,6.43
2023-02-24T20:26:46.815Z,6.35
2023-02-24T20:29:14.863Z,6.36
2023-02-24T20:31:42.876Z,6.28
2023-02-24T20:34:11.046Z,6.31
2023-02-24T20:36:38.568Z,6.24
2023-02-24T20:39:07.443Z,6.21
2023-02-24T20:41:35.144Z,6.23
2023-02-24T20:44:03.992Z,6.19
2023-02-24T20:46:33.027Z,6.25
2023-02-24T20:49:02.344Z,6.23
2023-02-24T20:51:31.109Z,6.30
2023-02-24T20:53:59.632Z,6.17
2023-02-24T20:56:28.090Z,6.27
2023-02-24T20:59:00.448Z,6.34
2023-02-24T21:01:30.509Z,5.91
2023-02-24T21:03:58.826Z,5.90
2023-02-24T21:06:27.015Z,5.97
2023-02-24T21:08:54.691Z,6.22
2023-02-24T21:11:22.910Z,6.30
2023-02-24T21:13:51.833Z,6.11
2023-02-24T21:16:21.154Z,6.07
2023-02-24T21:18:52.944Z,5.85
2023-02-24T21:21:21.179Z,5.35
2023-02-24T21:23:50.212Z,5.27
2023-02-24T21:26:18.369Z,4.89
2023-02-24T21:28:46.260Z,4.88
2023-02-24T21:31:15.673Z,4.58
2023-02-24T21:33:43.582Z,4.40
2023-02-24T21:36:15.724Z,4.36
2023-02-24T21:38:43.266Z,4.19
2023-02-24T21:41:14.590Z,4.13
2023-02-24T21:43:42.179Z,4.01
2023-02-24T21:46:10.013Z,4.00
2023-02-24T21:48:38.726Z,3.86
2023-02-24T21:51:09.431Z,3.84
2023-02-24T21:53:40.949Z,3.93
2023-02-24T21:56:16.124Z,3.67
2023-02-24T21:58:45.501Z,3.47
2023-02-24T22:01:14.744Z,3.41
2023-02-24T22:03:42.426Z,3.26
2023-02-24T22:06:10.814Z,3.27
2023-02-24T22:08:43.246Z,3.26
2023-02-24T22:11:12.103Z,3.22
2023-02-24T22:13:39.762Z,3.18
2023-02-24T22:16:08.148Z,3.23
2023-02-24T22:18:35.801Z,3.26
2023-02-24T22:21:06.937Z,3.26
2023-02-24T22:23:34.423Z,3.20
2023-02-24T22:26:05.652Z,3.09
2023-02-24T22:28:34.725Z,3.17
2023-02-24T22:31:03.087Z,3.22
2023-02-24T22:33:30.959Z,3.19
2023-02-24T22:36:02.641Z,3.32
2023-02-24T22:38:31.804Z,3.22
2023-02-24T22:41:00.002Z,3.11
2023-02-24T22:43:30.342Z,3.16
2023-02-24T22:45:59.018Z,3.13
2023-02-24T22:48:26.743Z,3.19
2023-02-24T22:50:56.424Z,3.14
2023-02-24T22:53:24.934Z,3.19
2023-02-24T22:55:52.809Z,3.30
2023-02-24T22:58:22.255Z,3.43
2023-02-24T23:00:52.631Z,3.14
2023-02-24T23:03:23.050Z,3.05
2023-02-24T23:05:56.585Z,3.14
2023-02-24T23:08:24.557Z,3.10
2023-02-24T23:10:53.220Z,3.18
2023-02-24T23:13:20.904Z,3.21
2023-02-24T23:15:48.794Z,3.09
2023-02-24T23:18:17.747Z,3.11
2023-02-24T23:20:46.512Z,3.04
2023-02-24T23:23:14.015Z,3.01
2023-02-24T23:25:42.049Z,2.96
2023-02-24T23:28:09.625Z,2.96
2023-02-24T23:30:41.918Z,2.92
2023-02-24T23:33:10.983Z,2.93
2023-02-24T23:35:40.702Z,2.99
2023-02-24T23:38:08.557Z,2.98
2023-02-24T23:40:49.532Z,2.89
2023-02-24T23:43:17.779Z,3.02
2023-02-24T23:45:45.443Z,3.00
2023-02-24T23:48:15.611Z,3.02
2023-02-24T23:50:45.840Z,2.98
2023-02-24T23:53:13.383Z,3.00
2023-02-24T23:55:42.034Z,3.01
2023-02-24T23:58:09.568Z,3.14
